Portland, OR (97229)

5:47 AM PDT on August 29, 2015 (GMT -0700)
Oak meadows | | Change Station
CLOSE
Current Station
Personal Weather Station
Location: Portland, OR
Elevation: 266 ft
Nearby Weather Stations
Active Advisory: Wind Advisory

Elev 266 ft 45.55 °N, 122.83 °W | Updated 11 minutes ago

Rain
Rain
62.8 °F
Feels Like 62.8 °F
N
3.2
Wind Variable Wind from ESE

Today
High -- | Low -- °F
--% Chance of Precip.
Yesterday
High -- | Low -- °F
Precip. -- in
6:28 AM 7:54 PM
Full, 100% visible
Pressure 29.59 in
Visibility 10.0 miles
Clouds Few 6000 ft
Few 8000 ft
Overcast 10000 ft
Dew Point 62 °F
Humidity 99%
Rainfall 0.64 in
Snow Depth Not available.
UV 0 out of 12
Pollen .20 out of 12
Air Quality Not available.
Flu Activity Not available.
METAR KHIO 291153Z 12009KT 10SM -RA FEW060 FEW080 OVC100 18/16 A2960 RMK AO2 TSB1055E17 SLP020 P0016 60019 70019 T01780161 10200 20178 50012
Pressure 29.59 in
Visibility 10.0 miles
Clouds Few 6000 ft
Few 8000 ft
Overcast 10000 ft
Dew Point 62 °F
Humidity 99%
Rainfall 0.64 in
Snow Depth Not available.
UV 0 out of 12
Pollen .20 out of 12
Air Quality Not available.
Flu Activity Not available.
METAR KHIO 291153Z 12009KT 10SM -RA FEW060 FEW080 OVC100 18/16 A2960 RMK AO2 TSB1055E17 SLP020 P0016 60019 70019 T01780161 10200 20178 50012

10-Day Weather Forecast

×

Almanac

Astronomy

Aug. 29, 2015 Rise Set
Actual Time
Civil Twilight
Nautical Twilight
Astronomical Twilight
Moon
Length of Visible Light
Length of Day
Tomorrow will be .
, % of the Moon is Illuminated

Today's Extremes

State Highs State Lows

Community

WunderPhotos

Upload Photos

1,850,677 photos uploaded!

WunderBlogs® & News

Nearby

Air Quality

  Air Quality AQ Index Pollutant
Not available.

Snow Depth

Station Depth Elevation

Earthquake Activity

City Distance Mag. Time & Date
Minimum magnitude displayed is 2.5.

Coastal Water Temperatures

Place Temperature

Stations

Nearby Weather Stations

Station Location Temp. Windchill Dew Point Humidity Wind Precip. Elev Updated Type
                   
Wind Advisory
Statement as of 3:42 AM PDT on August 29, 2015

... Wind Advisory remains in effect from 8 am this morning to 3 PM
PDT this afternoon for the northern Willamette and lower Columbia River
valley...

* winds: south winds 15 to 30 mph with gusts 35 to 50 mph.

* Timing: 8 am to 3 PM Saturday... strongest between 8 am and
noon.

* Locations include: Hillsboro... Portland... Oregon City...
Gresham... St. Helens... Vancouver... Battle Ground...
Washougal... Longview... Kelso.

* Impacts: with a full set of leaves on trees... these winds
could cause tree damage and local power disruptions. These
winds could cause problems for outdoor events... especially
those with temporary outdoor facilities such as tents and
canopies.

Precautionary/preparedness actions...

A Wind Advisory is issued when winds may cause minor property
damage without extra precautions. Motorists in high profile
vehicles should use caution until the winds subside.